sensor_id;sensor_type;location;lat;lon;timestamp;P1;durP1;ratioP1;P2;durP2;ratioP2
84264;SDS011;74412;45.626;5.108;2024-01-25T00:01:45;28.00;;;24.50;;
84264;SDS011;74412;45.626;5.108;2024-01-25T00:04:12;30.00;;;23.75;;
84264;SDS011;74412;45.626;5.108;2024-01-25T00:06:40;23.50;;;23.25;;
84264;SDS011;74412;45.626;5.108;2024-01-25T00:09:06;22.00;;;21.25;;
84264;SDS011;74412;45.626;5.108;2024-01-25T00:11:33;22.00;;;20.25;;
84264;SDS011;74412;45.626;5.108;2024-01-25T00:14:00;21.25;;;20.25;;
84264;SDS011;74412;45.626;5.108;2024-01-25T00:16:27;21.00;;;20.50;;
84264;SDS011;74412;45.626;5.108;2024-01-25T00:18:54;26.50;;;23.25;;
84264;SDS011;74412;45.626;5.108;2024-01-25T00:21:20;18.25;;;18.00;;
84264;SDS011;74412;45.626;5.108;2024-01-25T00:23:48;21.25;;;20.50;;
84264;SDS011;74412;45.626;5.108;2024-01-25T00:26:15;20.25;;;19.75;;
84264;SDS011;74412;45.626;5.108;2024-01-25T00:28:41;20.00;;;17.25;;
84264;SDS011;74412;45.626;5.108;2024-01-25T00:31:08;18.75;;;17.00;;
84264;SDS011;74412;45.626;5.108;2024-01-25T00:33:35;18.75;;;18.75;;
84264;SDS011;74412;45.626;5.108;2024-01-25T00:36:01;18.00;;;17.00;;
84264;SDS011;74412;45.626;5.108;2024-01-25T00:38:32;19.75;;;18.25;;
84264;SDS011;74412;45.626;5.108;2024-01-25T00:41:01;19.00;;;15.00;;
84264;SDS011;74412;45.626;5.108;2024-01-25T00:43:28;19.75;;;18.75;;
84264;SDS011;74412;45.626;5.108;2024-01-25T00:45:55;17.75;;;16.25;;
84264;SDS011;74412;45.626;5.108;2024-01-25T00:48:22;18.50;;;17.00;;
84264;SDS011;74412;45.626;5.108;2024-01-25T00:50:50;12.00;;;12.00;;
84264;SDS011;74412;45.626;5.108;2024-01-25T00:53:17;16.75;;;14.00;;
84264;SDS011;74412;45.626;5.108;2024-01-25T00:55:45;20.50;;;17.25;;
84264;SDS011;74412;45.626;5.108;2024-01-25T00:58:13;18.25;;;18.25;;
84264;SDS011;74412;45.626;5.108;2024-01-25T01:00:40;16.25;;;15.75;;
84264;SDS011;74412;45.626;5.108;2024-01-25T01:03:07;16.00;;;14.75;;
84264;SDS011;74412;45.626;5.108;2024-01-25T01:05:36;20.50;;;16.75;;
84264;SDS011;74412;45.626;5.108;2024-01-25T01:08:03;16.50;;;14.50;;
84264;SDS011;74412;45.626;5.108;2024-01-25T01:10:30;18.50;;;17.25;;
84264;SDS011;74412;45.626;5.108;2024-01-25T01:12:57;13.25;;;13.25;;
84264;SDS011;74412;45.626;5.108;2024-01-25T01:15:25;17.25;;;14.75;;
84264;SDS011;74412;45.626;5.108;2024-01-25T01:17:51;18.00;;;15.00;;
84264;SDS011;74412;45.626;5.108;2024-01-25T01:20:18;15.25;;;14.50;;
84264;SDS011;74412;45.626;5.108;2024-01-25T01:22:44;17.25;;;16.50;;
84264;SDS011;74412;45.626;5.108;2024-01-25T01:25:11;17.00;;;16.00;;
84264;SDS011;74412;45.626;5.108;2024-01-25T01:27:38;15.75;;;13.75;;
84264;SDS011;74412;45.626;5.108;2024-01-25T01:30:05;17.50;;;16.00;;
84264;SDS011;74412;45.626;5.108;2024-01-25T01:32:36;17.25;;;16.25;;
84264;SDS011;74412;45.626;5.108;2024-01-25T01:35:03;16.75;;;16.50;;
84264;SDS011;74412;45.626;5.108;2024-01-25T01:37:32;20.75;;;18.00;;
84264;SDS011;74412;45.626;5.108;2024-01-25T01:39:58;20.75;;;20.00;;
84264;SDS011;74412;45.626;5.108;2024-01-25T01:42:25;18.25;;;17.75;;
84264;SDS011;74412;45.626;5.108;2024-01-25T01:44:53;22.50;;;19.00;;
84264;SDS011;74412;45.626;5.108;2024-01-25T01:47:20;22.50;;;21.00;;
84264;SDS011;74412;45.626;5.108;2024-01-25T01:49:48;18.00;;;18.00;;
84264;SDS011;74412;45.626;5.108;2024-01-25T01:52:15;17.00;;;16.00;;
84264;SDS011;74412;45.626;5.108;2024-01-25T01:54:42;21.25;;;21.25;;
84264;SDS011;74412;45.626;5.108;2024-01-25T01:57:09;23.75;;;22.50;;
84264;SDS011;74412;45.626;5.108;2024-01-25T01:59:36;24.75;;;21.25;;
84264;SDS011;74412;45.626;5.108;2024-01-25T02:02:06;24.25;;;22.00;;
84264;SDS011;74412;45.626;5.108;2024-01-25T02:04:32;26.75;;;26.00;;
84264;SDS011;74412;45.626;5.108;2024-01-25T02:07:00;24.75;;;21.75;;
84264;SDS011;74412;45.626;5.108;2024-01-25T02:09:27;24.00;;;24.00;;
84264;SDS011;74412;45.626;5.108;2024-01-25T02:12:00;24.50;;;20.75;;
84264;SDS011;74412;45.626;5.108;2024-01-25T02:14:27;28.00;;;25.50;;
84264;SDS011;74412;45.626;5.108;2024-01-25T02:16:54;24.50;;;23.75;;
84264;SDS011;74412;45.626;5.108;2024-01-25T02:19:20;27.25;;;26.25;;
84264;SDS011;74412;45.626;5.108;2024-01-25T02:21:47;24.00;;;22.25;;
84264;SDS011;74412;45.626;5.108;2024-01-25T02:24:16;27.50;;;24.75;;
84264;SDS011;74412;45.626;5.108;2024-01-25T02:26:43;29.25;;;27.00;;
84264;SDS011;74412;45.626;5.108;2024-01-25T02:29:09;25.50;;;24.50;;
84264;SDS011;74412;45.626;5.108;2024-01-25T02:31:36;25.75;;;23.75;;
84264;SDS011;74412;45.626;5.108;2024-01-25T02:34:03;27.25;;;27.25;;
84264;SDS011;74412;45.626;5.108;2024-01-25T02:36:29;24.25;;;23.25;;
84264;SDS011;74412;45.626;5.108;2024-01-25T02:38:56;30.25;;;26.50;;
84264;SDS011;74412;45.626;5.108;2024-01-25T02:41:24;26.00;;;25.50;;
84264;SDS011;74412;45.626;5.108;2024-01-25T02:43:51;29.50;;;25.00;;
84264;SDS011;74412;45.626;5.108;2024-01-25T02:46:17;29.75;;;27.50;;
84264;SDS011;74412;45.626;5.108;2024-01-25T02:48:44;31.25;;;27.00;;
84264;SDS011;74412;45.626;5.108;2024-01-25T02:51:10;30.00;;;29.50;;
84264;SDS011;74412;45.626;5.108;2024-01-25T02:53:38;30.75;;;28.75;;
84264;SDS011;74412;45.626;5.108;2024-01-25T02:56:05;30.00;;;26.75;;
84264;SDS011;74412;45.626;5.108;2024-01-25T02:58:33;29.00;;;27.00;;
84264;SDS011;74412;45.626;5.108;2024-01-25T03:01:00;31.25;;;26.75;;
84264;SDS011;74412;45.626;5.108;2024-01-25T03:03:27;27.25;;;26.00;;
84264;SDS011;74412;45.626;5.108;2024-01-25T03:05:53;25.00;;;24.00;;
84264;SDS011;74412;45.626;5.108;2024-01-25T03:08:20;26.75;;;26.50;;
84264;SDS011;74412;45.626;5.108;2024-01-25T03:10:47;27.25;;;25.00;;
84264;SDS011;74412;45.626;5.108;2024-01-25T03:13:14;26.75;;;26.50;;
84264;SDS011;74412;45.626;5.108;2024-01-25T03:15:42;28.00;;;26.50;;
84264;SDS011;74412;45.626;5.108;2024-01-25T03:18:09;28.75;;;26.50;;
84264;SDS011;74412;45.626;5.108;2024-01-25T03:20:36;30.00;;;28.50;;
84264;SDS011;74412;45.626;5.108;2024-01-25T03:23:03;30.00;;;28.25;;
84264;SDS011;74412;45.626;5.108;2024-01-25T03:25:30;28.25;;;26.75;;
84264;SDS011;74412;45.626;5.108;2024-01-25T03:27:57;30.00;;;28.25;;
84264;SDS011;74412;45.626;5.108;2024-01-25T03:30:23;31.75;;;28.75;;
84264;SDS011;74412;45.626;5.108;2024-01-25T03:32:51;27.00;;;24.25;;
84264;SDS011;74412;45.626;5.108;2024-01-25T03:35:18;29.25;;;26.50;;
84264;SDS011;74412;45.626;5.108;2024-01-25T03:37:44;31.00;;;27.50;;
84264;SDS011;74412;45.626;5.108;2024-01-25T03:40:11;30.50;;;28.50;;
84264;SDS011;74412;45.626;5.108;2024-01-25T03:42:38;31.75;;;28.75;;
84264;SDS011;74412;45.626;5.108;2024-01-25T03:45:05;31.75;;;30.75;;
84264;SDS011;74412;45.626;5.108;2024-01-25T03:47:32;26.50;;;25.00;;
84264;SDS011;74412;45.626;5.108;2024-01-25T03:50:00;34.25;;;30.75;;
84264;SDS011;74412;45.626;5.108;2024-01-25T03:52:27;26.00;;;25.75;;
84264;SDS011;74412;45.626;5.108;2024-01-25T03:54:55;28.25;;;28.25;;
84264;SDS011;74412;45.626;5.108;2024-01-25T03:57:21;27.75;;;25.75;;
84264;SDS011;74412;45.626;5.108;2024-01-25T03:59:48;27.00;;;26.50;;
84264;SDS011;74412;45.626;5.108;2024-01-25T04:02:15;31.00;;;26.25;;
84264;SDS011;74412;45.626;5.108;2024-01-25T04:04:41;29.50;;;26.75;;
84264;SDS011;74412;45.626;5.108;2024-01-25T04:07:10;28.75;;;25.00;;
84264;SDS011;74412;45.626;5.108;2024-01-25T04:09:37;28.75;;;26.75;;
84264;SDS011;74412;45.626;5.108;2024-01-25T04:12:05;30.25;;;28.00;;
84264;SDS011;74412;45.626;5.108;2024-01-25T04:14:32;27.25;;;27.25;;
84264;SDS011;74412;45.626;5.108;2024-01-25T04:16:59;25.75;;;23.75;;
84264;SDS011;74412;45.626;5.108;2024-01-25T04:19:25;28.25;;;26.25;;
84264;SDS011;74412;45.626;5.108;2024-01-25T04:21:52;28.50;;;25.75;;
84264;SDS011;74412;45.626;5.108;2024-01-25T04:24:20;26.00;;;25.50;;
84264;SDS011;74412;45.626;5.108;2024-01-25T04:26:46;29.50;;;28.00;;
84264;SDS011;74412;45.626;5.108;2024-01-25T04:29:13;25.75;;;23.75;;
84264;SDS011;74412;45.626;5.108;2024-01-25T04:31:42;30.25;;;28.00;;
84264;SDS011;74412;45.626;5.108;2024-01-25T04:34:10;29.00;;;26.50;;
84264;SDS011;74412;45.626;5.108;2024-01-25T04:36:36;22.75;;;21.00;;
84264;SDS011;74412;45.626;5.108;2024-01-25T04:39:03;30.50;;;27.50;;
84264;SDS011;74412;45.626;5.108;2024-01-25T04:41:31;26.25;;;22.50;;
84264;SDS011;74412;45.626;5.108;2024-01-25T04:43:57;26.00;;;21.50;;
84264;SDS011;74412;45.626;5.108;2024-01-25T04:46:24;24.25;;;24.25;;
84264;SDS011;74412;45.626;5.108;2024-01-25T04:48:51;22.00;;;20.25;;
84264;SDS011;74412;45.626;5.108;2024-01-25T04:51:19;20.75;;;19.00;;
84264;SDS011;74412;45.626;5.108;2024-01-25T04:53:46;23.75;;;23.25;;
84264;SDS011;74412;45.626;5.108;2024-01-25T04:56:12;20.25;;;19.75;;
84264;SDS011;74412;45.626;5.108;2024-01-25T04:58:40;20.75;;;20.75;;
84264;SDS011;74412;45.626;5.108;2024-01-25T05:01:07;22.75;;;20.00;;
84264;SDS011;74412;45.626;5.108;2024-01-25T05:03:34;24.75;;;23.25;;
84264;SDS011;74412;45.626;5.108;2024-01-25T05:06:00;20.25;;;19.50;;
84264;SDS011;74412;45.626;5.108;2024-01-25T05:08:27;25.50;;;20.00;;
84264;SDS011;74412;45.626;5.108;2024-01-25T05:10:53;16.00;;;15.25;;
84264;SDS011;74412;45.626;5.108;2024-01-25T05:13:20;22.25;;;20.75;;
84264;SDS011;74412;45.626;5.108;2024-01-25T05:15:48;26.25;;;23.25;;
84264;SDS011;74412;45.626;5.108;2024-01-25T05:18:15;24.00;;;21.50;;
84264;SDS011;74412;45.626;5.108;2024-01-25T05:20:41;47.50;;;36.50;;
84264;SDS011;74412;45.626;5.108;2024-01-25T05:23:08;41.00;;;35.50;;
84264;SDS011;74412;45.626;5.108;2024-01-25T05:25:35;61.75;;;50.00;;
84264;SDS011;74412;45.626;5.108;2024-01-25T05:28:01;46.00;;;38.50;;
84264;SDS011;74412;45.626;5.108;2024-01-25T05:30:28;28.75;;;24.25;;
84264;SDS011;74412;45.626;5.108;2024-01-25T05:32:56;26.75;;;23.00;;
84264;SDS011;74412;45.626;5.108;2024-01-25T05:35:23;25.50;;;24.50;;
84264;SDS011;74412;45.626;5.108;2024-01-25T05:37:49;25.25;;;24.75;;
84264;SDS011;74412;45.626;5.108;2024-01-25T05:40:16;25.25;;;24.75;;
84264;SDS011;74412;45.626;5.108;2024-01-25T05:42:43;25.50;;;24.25;;
84264;SDS011;74412;45.626;5.108;2024-01-25T05:45:10;26.75;;;26.75;;
84264;SDS011;74412;45.626;5.108;2024-01-25T05:47:36;32.00;;;30.00;;
84264;SDS011;74412;45.626;5.108;2024-01-25T05:50:05;34.00;;;30.00;;
84264;SDS011;74412;45.626;5.108;2024-01-25T05:52:32;33.25;;;29.25;;
84264;SDS011;74412;45.626;5.108;2024-01-25T05:55:02;26.00;;;26.00;;
84264;SDS011;74412;45.626;5.108;2024-01-25T05:57:28;23.75;;;23.75;;
84264;SDS011;74412;45.626;5.108;2024-01-25T05:59:55;31.75;;;27.75;;
84264;SDS011;74412;45.626;5.108;2024-01-25T06:02:22;23.00;;;23.00;;
84264;SDS011;74412;45.626;5.108;2024-01-25T06:04:49;28.00;;;27.75;;
84264;SDS011;74412;45.626;5.108;2024-01-25T06:07:16;21.75;;;20.75;;
84264;SDS011;74412;45.626;5.108;2024-01-25T06:09:43;22.50;;;22.50;;
84264;SDS011;74412;45.626;5.108;2024-01-25T06:12:10;21.50;;;20.75;;
84264;SDS011;74412;45.626;5.108;2024-01-25T06:14:36;24.00;;;22.00;;
84264;SDS011;74412;45.626;5.108;2024-01-25T06:17:03;25.25;;;21.50;;
84264;SDS011;74412;45.626;5.108;2024-01-25T06:19:30;27.75;;;24.75;;
84264;SDS011;74412;45.626;5.108;2024-01-25T06:21:57;47.75;;;39.50;;
84264;SDS011;74412;45.626;5.108;2024-01-25T06:24:25;42.00;;;32.25;;
84264;SDS011;74412;45.626;5.108;2024-01-25T06:26:52;36.75;;;33.50;;
84264;SDS011;74412;45.626;5.108;2024-01-25T06:29:19;44.75;;;36.50;;
84264;SDS011;74412;45.626;5.108;2024-01-25T06:31:45;33.25;;;31.00;;
84264;SDS011;74412;45.626;5.108;2024-01-25T06:34:12;27.25;;;27.25;;
84264;SDS011;74412;45.626;5.108;2024-01-25T06:36:39;23.25;;;22.00;;
84264;SDS011;74412;45.626;5.108;2024-01-25T06:39:05;19.75;;;17.00;;
84264;SDS011;74412;45.626;5.108;2024-01-25T06:41:35;20.00;;;19.00;;
84264;SDS011;74412;45.626;5.108;2024-01-25T06:44:01;19.25;;;18.50;;
84264;SDS011;74412;45.626;5.108;2024-01-25T06:46:28;21.75;;;19.00;;
84264;SDS011;74412;45.626;5.108;2024-01-25T06:48:55;18.00;;;17.50;;
84264;SDS011;74412;45.626;5.108;2024-01-25T06:51:23;19.75;;;18.00;;
84264;SDS011;74412;45.626;5.108;2024-01-25T06:53:50;30.50;;;26.00;;
84264;SDS011;74412;45.626;5.108;2024-01-25T06:56:18;29.00;;;24.75;;
84264;SDS011;74412;45.626;5.108;2024-01-25T06:58:46;33.50;;;30.50;;
84264;SDS011;74412;45.626;5.108;2024-01-25T07:01:13;28.50;;;25.25;;
84264;SDS011;74412;45.626;5.108;2024-01-25T07:03:45;28.00;;;27.00;;
84264;SDS011;74412;45.626;5.108;2024-01-25T07:06:12;26.75;;;24.00;;
84264;SDS011;74412;45.626;5.108;2024-01-25T07:08:39;18.00;;;17.50;;
84264;SDS011;74412;45.626;5.108;2024-01-25T07:11:07;23.75;;;20.75;;
84264;SDS011;74412;45.626;5.108;2024-01-25T07:13:34;23.00;;;21.00;;
84264;SDS011;74412;45.626;5.108;2024-01-25T07:16:02;21.50;;;21.50;;
84264;SDS011;74412;45.626;5.108;2024-01-25T07:18:29;17.50;;;17.50;;
84264;SDS011;74412;45.626;5.108;2024-01-25T07:20:56;20.25;;;18.00;;
84264;SDS011;74412;45.626;5.108;2024-01-25T07:23:23;24.50;;;22.25;;
84264;SDS011;74412;45.626;5.108;2024-01-25T07:25:49;27.75;;;26.00;;
84264;SDS011;74412;45.626;5.108;2024-01-25T07:28:18;23.00;;;22.00;;
84264;SDS011;74412;45.626;5.108;2024-01-25T07:30:46;23.00;;;21.00;;
84264;SDS011;74412;45.626;5.108;2024-01-25T07:33:14;19.50;;;18.75;;
84264;SDS011;74412;45.626;5.108;2024-01-25T07:35:41;22.75;;;20.00;;
84264;SDS011;74412;45.626;5.108;2024-01-25T07:38:10;22.75;;;21.75;;
84264;SDS011;74412;45.626;5.108;2024-01-25T07:40:37;22.25;;;21.00;;
84264;SDS011;74412;45.626;5.108;2024-01-25T07:43:04;22.50;;;20.75;;
84264;SDS011;74412;45.626;5.108;2024-01-25T07:45:30;16.50;;;16.50;;
84264;SDS011;74412;45.626;5.108;2024-01-25T07:47:57;20.25;;;20.25;;
84264;SDS011;74412;45.626;5.108;2024-01-25T07:50:25;22.00;;;17.50;;
84264;SDS011;74412;45.626;5.108;2024-01-25T07:52:52;17.75;;;17.50;;
84264;SDS011;74412;45.626;5.108;2024-01-25T07:55:20;22.25;;;19.50;;
84264;SDS011;74412;45.626;5.108;2024-01-25T07:57:47;17.50;;;17.50;;
84264;SDS011;74412;45.626;5.108;2024-01-25T08:00:13;20.25;;;18.50;;
84264;SDS011;74412;45.626;5.108;2024-01-25T08:02:40;24.00;;;22.00;;
84264;SDS011;74412;45.626;5.108;2024-01-25T08:05:09;23.00;;;20.50;;
84264;SDS011;74412;45.626;5.108;2024-01-25T08:07:37;18.50;;;18.50;;
84264;SDS011;74412;45.626;5.108;2024-01-25T08:10:05;18.50;;;18.00;;
84264;SDS011;74412;45.626;5.108;2024-01-25T08:12:33;27.00;;;23.00;;
84264;SDS011;74412;45.626;5.108;2024-01-25T08:14:59;29.00;;;28.00;;
84264;SDS011;74412;45.626;5.108;2024-01-25T08:17:26;15.00;;;15.00;;
84264;SDS011;74412;45.626;5.108;2024-01-25T08:19:52;15.00;;;14.25;;
84264;SDS011;74412;45.626;5.108;2024-01-25T08:22:19;13.00;;;12.75;;
84264;SDS011;74412;45.626;5.108;2024-01-25T08:24:47;15.50;;;12.50;;
84264;SDS011;74412;45.626;5.108;2024-01-25T08:27:13;13.50;;;13.50;;
84264;SDS011;74412;45.626;5.108;2024-01-25T08:29:41;15.75;;;14.50;;
84264;SDS011;74412;45.626;5.108;2024-01-25T08:32:07;14.25;;;14.25;;
84264;SDS011;74412;45.626;5.108;2024-01-25T08:34:34;12.75;;;10.75;;
84264;SDS011;74412;45.626;5.108;2024-01-25T08:37:00;16.50;;;13.50;;
84264;SDS011;74412;45.626;5.108;2024-01-25T08:39:27;13.50;;;13.50;;
84264;SDS011;74412;45.626;5.108;2024-01-25T08:41:55;13.00;;;12.50;;
84264;SDS011;74412;45.626;5.108;2024-01-25T08:44:25;15.75;;;14.00;;
84264;SDS011;74412;45.626;5.108;2024-01-25T08:46:52;13.00;;;13.00;;
84264;SDS011;74412;45.626;5.108;2024-01-25T08:49:18;14.25;;;13.75;;
84264;SDS011;74412;45.626;5.108;2024-01-25T08:51:45;12.25;;;11.50;;
84264;SDS011;74412;45.626;5.108;2024-01-25T08:54:12;17.75;;;13.50;;
84264;SDS011;74412;45.626;5.108;2024-01-25T08:56:38;13.25;;;13.00;;
84264;SDS011;74412;45.626;5.108;2024-01-25T08:59:06;14.75;;;13.00;;
84264;SDS011;74412;45.626;5.108;2024-01-25T09:01:33;11.75;;;11.50;;
84264;SDS011;74412;45.626;5.108;2024-01-25T09:04:00;14.50;;;13.75;;
84264;SDS011;74412;45.626;5.108;2024-01-25T09:06:27;19.25;;;18.25;;
84264;SDS011;74412;45.626;5.108;2024-01-25T09:08:54;18.00;;;15.75;;
84264;SDS011;74412;45.626;5.108;2024-01-25T09:11:21;18.00;;;16.25;;
84264;SDS011;74412;45.626;5.108;2024-01-25T09:13:47;17.50;;;16.25;;
84264;SDS011;74412;45.626;5.108;2024-01-25T09:16:16;16.25;;;16.25;;
84264;SDS011;74412;45.626;5.108;2024-01-25T09:18:42;12.50;;;12.25;;
84264;SDS011;74412;45.626;5.108;2024-01-25T09:21:09;16.50;;;14.25;;
84264;SDS011;74412;45.626;5.108;2024-01-25T09:23:36;15.00;;;12.25;;
84264;SDS011;74412;45.626;5.108;2024-01-25T09:26:02;12.25;;;11.50;;
84264;SDS011;74412;45.626;5.108;2024-01-25T09:28:29;13.75;;;13.25;;
84264;SDS011;74412;45.626;5.108;2024-01-25T09:30:55;17.25;;;15.50;;
84264;SDS011;74412;45.626;5.108;2024-01-25T09:33:23;12.75;;;11.75;;
84264;SDS011;74412;45.626;5.108;2024-01-25T09:35:50;17.75;;;14.75;;
84264;SDS011;74412;45.626;5.108;2024-01-25T09:38:17;16.75;;;15.00;;
84264;SDS011;74412;45.626;5.108;2024-01-25T09:40:43;16.75;;;15.00;;
84264;SDS011;74412;45.626;5.108;2024-01-25T09:43:11;14.00;;;14.00;;
84264;SDS011;74412;45.626;5.108;2024-01-25T09:45:38;15.75;;;15.00;;
84264;SDS011;74412;45.626;5.108;2024-01-25T09:48:06;16.00;;;15.25;;
84264;SDS011;74412;45.626;5.108;2024-01-25T09:50:35;13.50;;;12.50;;
84264;SDS011;74412;45.626;5.108;2024-01-25T09:53:02;12.50;;;11.50;;
84264;SDS011;74412;45.626;5.108;2024-01-25T09:55:32;11.25;;;9.50;;
84264;SDS011;74412;45.626;5.108;2024-01-25T09:58:02;10.50;;;9.75;;
84264;SDS011;74412;45.626;5.108;2024-01-25T10:00:32;16.75;;;14.00;;
84264;SDS011;74412;45.626;5.108;2024-01-25T10:02:59;12.75;;;11.25;;
84264;SDS011;74412;45.626;5.108;2024-01-25T10:05:26;15.25;;;12.25;;
84264;SDS011;74412;45.626;5.108;2024-01-25T10:07:54;16.25;;;12.25;;
84264;SDS011;74412;45.626;5.108;2024-01-25T10:10:26;16.00;;;14.25;;
84264;SDS011;74412;45.626;5.108;2024-01-25T10:12:54;11.75;;;11.75;;
84264;SDS011;74412;45.626;5.108;2024-01-25T10:15:23;17.75;;;17.75;;
84264;SDS011;74412;45.626;5.108;2024-01-25T10:17:50;13.75;;;13.75;;
84264;SDS011;74412;45.626;5.108;2024-01-25T10:20:17;18.25;;;16.00;;
84264;SDS011;74412;45.626;5.108;2024-01-25T10:22:46;18.75;;;16.50;;
84264;SDS011;74412;45.626;5.108;2024-01-25T10:25:14;20.25;;;18.75;;
84264;SDS011;74412;45.626;5.108;2024-01-25T10:27:40;19.50;;;19.25;;
84264;SDS011;74412;45.626;5.108;2024-01-25T10:30:07;19.50;;;17.25;;
84264;SDS011;74412;45.626;5.108;2024-01-25T10:32:36;13.25;;;12.00;;
84264;SDS011;74412;45.626;5.108;2024-01-25T10:35:03;19.00;;;15.25;;
84264;SDS011;74412;45.626;5.108;2024-01-25T10:37:32;15.50;;;14.75;;
84264;SDS011;74412;45.626;5.108;2024-01-25T10:39:59;10.75;;;10.75;;
84264;SDS011;74412;45.626;5.108;2024-01-25T10:42:28;15.75;;;12.75;;
84264;SDS011;74412;45.626;5.108;2024-01-25T10:44:55;17.75;;;16.50;;
84264;SDS011;74412;45.626;5.108;2024-01-25T10:47:22;12.50;;;9.25;;
84264;SDS011;74412;45.626;5.108;2024-01-25T10:49:49;9.75;;;9.75;;
84264;SDS011;74412;45.626;5.108;2024-01-25T10:52:17;8.25;;;8.25;;
84264;SDS011;74412;45.626;5.108;2024-01-25T10:54:45;10.50;;;10.25;;
84264;SDS011;74412;45.626;5.108;2024-01-25T10:57:11;9.00;;;7.00;;
84264;SDS011;74412;45.626;5.108;2024-01-25T10:59:39;7.25;;;7.25;;
84264;SDS011;74412;45.626;5.108;2024-01-25T11:02:06;9.75;;;8.25;;
84264;SDS011;74412;45.626;5.108;2024-01-25T11:04:34;9.00;;;8.25;;
84264;SDS011;74412;45.626;5.108;2024-01-25T11:07:04;8.75;;;8.75;;
84264;SDS011;74412;45.626;5.108;2024-01-25T11:09:32;8.75;;;8.75;;
84264;SDS011;74412;45.626;5.108;2024-01-25T11:12:01;11.25;;;9.25;;
84264;SDS011;74412;45.626;5.108;2024-01-25T11:14:27;14.00;;;11.00;;
84264;SDS011;74412;45.626;5.108;2024-01-25T11:16:56;8.50;;;7.25;;
84264;SDS011;74412;45.626;5.108;2024-01-25T11:19:22;5.00;;;4.25;;
84264;SDS011;74412;45.626;5.108;2024-01-25T11:21:49;5.25;;;5.25;;
84264;SDS011;74412;45.626;5.108;2024-01-25T11:24:19;9.25;;;8.50;;
84264;SDS011;74412;45.626;5.108;2024-01-25T11:26:49;5.75;;;5.50;;
84264;SDS011;74412;45.626;5.108;2024-01-25T11:29:17;3.75;;;3.75;;
84264;SDS011;74412;45.626;5.108;2024-01-25T11:31:45;5.00;;;3.50;;
84264;SDS011;74412;45.626;5.108;2024-01-25T11:34:16;5.50;;;3.25;;
84264;SDS011;74412;45.626;5.108;2024-01-25T11:36:44;5.50;;;3.75;;
84264;SDS011;74412;45.626;5.108;2024-01-25T11:39:11;4.00;;;3.00;;
84264;SDS011;74412;45.626;5.108;2024-01-25T11:41:38;5.00;;;5.00;;
84264;SDS011;74412;45.626;5.108;2024-01-25T11:44:05;4.50;;;3.50;;
84264;SDS011;74412;45.626;5.108;2024-01-25T11:46:32;5.00;;;5.00;;
84264;SDS011;74412;45.626;5.108;2024-01-25T11:48:59;5.25;;;4.00;;
84264;SDS011;74412;45.626;5.108;2024-01-25T11:51:27;3.50;;;3.50;;
84264;SDS011;74412;45.626;5.108;2024-01-25T11:53:54;2.00;;;2.00;;
84264;SDS011;74412;45.626;5.108;2024-01-25T11:56:21;2.00;;;2.00;;
84264;SDS011;74412;45.626;5.108;2024-01-25T11:58:52;3.75;;;2.50;;
84264;SDS011;74412;45.626;5.108;2024-01-25T12:01:21;3.00;;;3.00;;
84264;SDS011;74412;45.626;5.108;2024-01-25T12:03:49;3.00;;;3.00;;
84264;SDS011;74412;45.626;5.108;2024-01-25T12:06:16;4.50;;;4.50;;
84264;SDS011;74412;45.626;5.108;2024-01-25T12:08:45;5.00;;;5.00;;
84264;SDS011;74412;45.626;5.108;2024-01-25T12:11:13;4.25;;;2.75;;
84264;SDS011;74412;45.626;5.108;2024-01-25T12:13:41;3.00;;;3.00;;
84264;SDS011;74412;45.626;5.108;2024-01-25T12:16:08;3.25;;;3.25;;
84264;SDS011;74412;45.626;5.108;2024-01-25T12:18:36;4.25;;;2.25;;
84264;SDS011;74412;45.626;5.108;2024-01-25T12:21:04;3.25;;;3.00;;
84264;SDS011;74412;45.626;5.108;2024-01-25T12:23:32;2.75;;;2.75;;
84264;SDS011;74412;45.626;5.108;2024-01-25T12:26:01;3.75;;;3.75;;
84264;SDS011;74412;45.626;5.108;2024-01-25T12:28:28;4.00;;;3.00;;
84264;SDS011;74412;45.626;5.108;2024-01-25T12:30:55;5.00;;;5.00;;
84264;SDS011;74412;45.626;5.108;2024-01-25T12:33:22;2.50;;;2.50;;
84264;SDS011;74412;45.626;5.108;2024-01-25T12:35:49;2.75;;;2.75;;
84264;SDS011;74412;45.626;5.108;2024-01-25T12:38:15;3.50;;;2.50;;
84264;SDS011;74412;45.626;5.108;2024-01-25T12:40:43;2.50;;;2.50;;
84264;SDS011;74412;45.626;5.108;2024-01-25T12:43:11;4.00;;;3.00;;
84264;SDS011;74412;45.626;5.108;2024-01-25T12:45:38;2.50;;;1.50;;
84264;SDS011;74412;45.626;5.108;2024-01-25T12:48:05;2.25;;;2.25;;
84264;SDS011;74412;45.626;5.108;2024-01-25T12:50:33;3.00;;;3.00;;
84264;SDS011;74412;45.626;5.108;2024-01-25T12:53:00;2.00;;;2.00;;
84264;SDS011;74412;45.626;5.108;2024-01-25T12:55:27;3.00;;;3.00;;
84264;SDS011;74412;45.626;5.108;2024-01-25T12:57:54;2.00;;;2.00;;
84264;SDS011;74412;45.626;5.108;2024-01-25T13:00:22;2.75;;;2.75;;
84264;SDS011;74412;45.626;5.108;2024-01-25T13:02:49;3.50;;;3.00;;
84264;SDS011;74412;45.626;5.108;2024-01-25T13:05:16;1.00;;;1.00;;
84264;SDS011;74412;45.626;5.108;2024-01-25T13:07:42;4.25;;;2.25;;
84264;SDS011;74412;45.626;5.108;2024-01-25T13:10:09;4.00;;;2.50;;
84264;SDS011;74412;45.626;5.108;2024-01-25T13:12:36;2.25;;;2.25;;
84264;SDS011;74412;45.626;5.108;2024-01-25T13:15:03;2.50;;;2.50;;
84264;SDS011;74412;45.626;5.108;2024-01-25T13:17:34;3.00;;;3.00;;
84264;SDS011;74412;45.626;5.108;2024-01-25T13:20:01;5.00;;;4.00;;
84264;SDS011;74412;45.626;5.108;2024-01-25T13:22:28;4.75;;;3.50;;
84264;SDS011;74412;45.626;5.108;2024-01-25T13:24:55;2.25;;;2.25;;
84264;SDS011;74412;45.626;5.108;2024-01-25T13:27:21;1.25;;;1.25;;
84264;SDS011;74412;45.626;5.108;2024-01-25T13:29:48;2.75;;;2.00;;
84264;SDS011;74412;45.626;5.108;2024-01-25T13:32:15;3.25;;;1.00;;
84264;SDS011;74412;45.626;5.108;2024-01-25T13:34:42;1.50;;;1.00;;
84264;SDS011;74412;45.626;5.108;2024-01-25T13:37:09;3.50;;;3.00;;
84264;SDS011;74412;45.626;5.108;2024-01-25T13:39:36;2.75;;;2.75;;
84264;SDS011;74412;45.626;5.108;2024-01-25T13:42:02;2.00;;;2.00;;
84264;SDS011;74412;45.626;5.108;2024-01-25T13:44:29;2.00;;;1.00;;
84264;SDS011;74412;45.626;5.108;2024-01-25T13:46:56;1.00;;;1.00;;
84264;SDS011;74412;45.626;5.108;2024-01-25T13:49:23;1.00;;;1.00;;
84264;SDS011;74412;45.626;5.108;2024-01-25T13:51:51;0.00;;;0.00;;
84264;SDS011;74412;45.626;5.108;2024-01-25T13:54:18;0.00;;;0.00;;
84264;SDS011;74412;45.626;5.108;2024-01-25T13:56:44;0.00;;;0.00;;
84264;SDS011;74412;45.626;5.108;2024-01-25T13:59:11;0.00;;;0.00;;
84264;SDS011;74412;45.626;5.108;2024-01-25T14:01:38;1.50;;;0.00;;
84264;SDS011;74412;45.626;5.108;2024-01-25T14:04:04;0.75;;;0.75;;
84264;SDS011;74412;45.626;5.108;2024-01-25T14:06:33;1.00;;;1.00;;
84264;SDS011;74412;45.626;5.108;2024-01-25T14:09:01;0.00;;;0.00;;
84264;SDS011;74412;45.626;5.108;2024-01-25T14:11:28;0.00;;;0.00;;
84264;SDS011;74412;45.626;5.108;2024-01-25T14:13:56;0.50;;;0.50;;
84264;SDS011;74412;45.626;5.108;2024-01-25T14:16:22;0.00;;;0.00;;
84264;SDS011;74412;45.626;5.108;2024-01-25T14:18:49;0.50;;;0.50;;
84264;SDS011;74412;45.626;5.108;2024-01-25T14:21:16;0.75;;;0.50;;
84264;SDS011;74412;45.626;5.108;2024-01-25T14:23:45;0.75;;;0.75;;
84264;SDS011;74412;45.626;5.108;2024-01-25T14:26:13;0.00;;;0.00;;
84264;SDS011;74412;45.626;5.108;2024-01-25T14:28:40;1.00;;;0.00;;